Time;durP1;ratioP1;P1;durP2;ratioP2;P2;SDS_P1;SDS_P2;PMS_P1;PMS_P2;Temp;Humidity;BMP_temperature;BMP_pressure;BME280_temperature;BME280_humidity;BME280_pressure;Samples;Min_cycle;Max_cycle;Signal;HPM_P1;HPM_P2
2021/07/25 00:01:44;;;;;;;13.03;7.60;;;17.10;99.90;;;;;;5070630;28;20191;-76
2021/07/25 00:04:12;;;;;;;20.43;8.40;;;17.00;99.90;;;;;;5070829;28;20199;-76
2021/07/25 00:06:39;;;;;;;16.57;8.83;;;16.90;99.90;;;;;;5072865;28;20645;-76
2021/07/25 00:09:05;;;;;;;21.80;9.53;;;16.80;99.90;;;;;;5067985;28;20717;-77
2021/07/25 00:11:32;;;;;;;24.43;9.70;;;16.70;99.90;;;;;;5066939;28;20203;-76
2021/07/25 00:14:03;;;;;;;17.90;10.43;;;16.60;99.90;;;;;;5066160;28;20222;-76
2021/07/25 00:16:31;;;;;;;21.40;10.20;;;16.70;99.90;;;;;;5068619;28;20253;-76
2021/07/25 00:18:59;;;;;;;20.70;11.23;;;16.60;99.90;;;;;;5072004;28;20657;-76
2021/07/25 00:21:25;;;;;;;23.77;10.47;;;16.70;99.90;;;;;;5070907;28;20198;-76
2021/07/25 00:23:55;;;;;;;28.27;11.10;;;16.80;99.90;;;;;;5071771;28;20195;-76
2021/07/25 00:26:26;;;;;;;18.77;10.60;;;16.70;99.90;;;;;;5070337;28;20281;-77
2021/07/25 00:28:53;;;;;;;20.90;9.87;;;16.80;99.90;;;;;;5071135;28;20273;-76
2021/07/25 00:31:20;;;;;;;21.93;10.83;;;16.80;99.90;;;;;;5070848;28;20215;-78
2021/07/25 00:33:49;;;;;;;22.70;11.30;;;16.90;99.90;;;;;;5070689;28;20223;-77
2021/07/25 00:36:16;;;;;;;18.70;11.03;;;16.90;99.90;;;;;;5071368;28;20196;-76
2021/07/25 00:38:43;;;;;;;19.70;10.53;;;16.80;99.90;;;;;;5071521;28;20676;-77
2021/07/25 00:41:12;;;;;;;21.80;11.43;;;16.80;99.90;;;;;;5071888;28;20274;-77
2021/07/25 00:43:39;;;;;;;23.33;10.60;;;16.80;99.90;;;;;;5067991;28;20208;-77
2021/07/25 00:46:06;;;;;;;21.60;10.97;;;16.80;99.90;;;;;;5070527;28;20657;-77
2021/07/25 00:48:35;;;;;;;19.13;9.80;;;16.80;99.90;;;;;;5073671;28;20199;-77
2021/07/25 00:51:05;;;;;;;17.23;9.90;;;16.70;99.90;;;;;;5074856;28;20206;-77
2021/07/25 00:53:34;;;;;;;16.27;10.27;;;16.70;99.90;;;;;;5072951;28;20211;-77
2021/07/25 00:56:02;;;;;;;15.07;9.37;;;16.70;99.90;;;;;;5073465;28;20282;-77
2021/07/25 00:58:29;;;;;;;15.97;9.27;;;16.70;99.90;;;;;;5071553;28;20266;-77
2021/07/25 01:00:56;;;;;;;14.97;9.60;;;16.70;99.90;;;;;;5070665;28;20385;-77
2021/07/25 01:03:34;;;;;;;20.73;9.67;;;16.80;99.90;;;;;;5071701;28;20218;-77
2021/07/25 01:06:14;;;;;;;18.27;9.83;;;16.80;99.90;;;;;;5074199;28;20278;-77
2021/07/25 01:08:47;;;;;;;15.37;9.70;;;16.90;99.90;;;;;;5074476;28;20287;-78
2021/07/25 01:11:14;;;;;;;15.40;9.37;;;17.00;99.90;;;;;;5073681;28;20263;-78
2021/07/25 01:13:46;;;;;;;18.20;9.67;;;17.00;99.90;;;;;;5073064;28;20314;-77
2021/07/25 01:16:13;;;;;;;15.50;9.77;;;17.00;99.90;;;;;;5075025;28;20227;-77
2021/07/25 01:18:47;;;;;;;18.30;9.57;;;17.00;99.90;;;;;;5071661;28;20196;-77
2021/07/25 01:21:17;;;;;;;19.73;9.47;;;17.00;99.90;;;;;;5072824;28;20195;-77
2021/07/25 01:23:44;;;;;;;14.07;9.20;;;17.00;99.90;;;;;;5070203;28;20324;-77
2021/07/25 01:26:13;;;;;;;16.47;9.03;;;17.10;99.90;;;;;;5071212;28;20208;-77
2021/07/25 01:28:46;;;;;;;18.53;9.47;;;17.30;99.90;;;;;;5070377;28;20238;-77
2021/07/25 01:31:17;;;;;;;21.20;10.70;;;17.40;99.90;;;;;;5071954;28;20620;-77
2021/07/25 01:33:45;;;;;;;20.07;10.20;;;17.30;99.90;;;;;;5072711;28;20681;-76
2021/07/25 01:36:12;;;;;;;18.97;10.03;;;17.40;99.90;;;;;;5064594;28;20286;-76
2021/07/25 01:38:40;;;;;;;18.77;9.57;;;17.50;99.90;;;;;;5074536;28;20196;-76
2021/07/25 01:41:09;;;;;;;17.70;9.37;;;17.50;99.90;;;;;;5072663;28;20214;-77
2021/07/25 01:43:38;;;;;;;17.40;9.83;;;17.60;99.90;;;;;;5068751;28;20198;-76
2021/07/25 01:46:06;;;;;;;16.80;9.80;;;17.70;99.90;;;;;;5071296;28;20208;-77
2021/07/25 01:48:33;;;;;;;19.73;9.87;;;17.70;99.90;;;;;;5070803;28;20287;-76
2021/07/25 01:51:00;;;;;;;16.40;8.83;;;17.70;99.90;;;;;;5071218;28;20230;-77
2021/07/25 01:53:27;;;;;;;18.70;9.63;;;17.80;99.90;;;;;;5073079;28;20199;-77
2021/07/25 01:55:55;;;;;;;15.80;9.00;;;17.80;99.90;;;;;;5072444;28;20257;-78
2021/07/25 01:58:22;;;;;;;14.10;8.43;;;17.80;99.90;;;;;;5071985;28;20208;-77
2021/07/25 02:00:49;;;;;;;16.43;9.27;;;17.70;99.90;;;;;;5071494;28;20633;-77
2021/07/25 02:03:20;;;;;;;24.33;9.13;;;17.70;99.90;;;;;;5075632;28;20211;-77
2021/07/25 02:05:47;;;;;;;18.20;8.83;;;17.80;99.90;;;;;;5074577;28;20591;-77
2021/07/25 02:08:14;;;;;;;16.67;8.57;;;17.80;99.90;;;;;;5073102;28;20693;-78
2021/07/25 02:10:44;;;;;;;18.53;8.43;;;17.80;99.90;;;;;;5071900;28;21700;-77
2021/07/25 02:13:12;;;;;;;14.13;8.10;;;17.70;99.90;;;;;;5073627;28;20202;-79
2021/07/25 02:15:40;;;;;;;16.50;7.97;;;17.70;99.90;;;;;;5073276;28;20222;-79
2021/07/25 02:18:07;;;;;;;15.67;7.87;;;17.70;99.90;;;;;;5070843;28;20286;-77
2021/07/25 02:20:34;;;;;;;17.50;8.73;;;17.80;99.90;;;;;;5072282;28;20206;-79
2021/07/25 02:23:01;;;;;;;18.40;8.00;;;17.80;99.90;;;;;;5071042;28;20215;-79
2021/07/25 02:25:28;;;;;;;19.53;8.70;;;17.80;99.90;;;;;;5071392;28;20484;-78
2021/07/25 02:27:55;;;;;;;14.03;9.03;;;17.90;99.90;;;;;;5072067;28;20382;-79
2021/07/25 02:30:23;;;;;;;18.43;8.43;;;17.90;99.90;;;;;;5071984;28;20203;-77
2021/07/25 02:32:50;;;;;;;18.87;8.50;;;17.90;99.90;;;;;;5070250;28;20196;-77
2021/07/25 02:35:17;;;;;;;15.50;9.17;;;17.90;99.90;;;;;;5071385;28;20211;-78
2021/07/25 02:37:44;;;;;;;17.57;8.60;;;17.80;99.90;;;;;;5070479;28;20670;-77
2021/07/25 02:40:11;;;;;;;14.93;8.83;;;17.80;99.90;;;;;;5070883;28;20215;-77
2021/07/25 02:42:38;;;;;;;20.37;8.87;;;17.80;99.90;;;;;;5070193;28;20192;-78
2021/07/25 02:45:06;;;;;;;22.13;8.33;;;17.80;99.90;;;;;;5069190;28;20282;-77
2021/07/25 02:47:34;;;;;;;15.97;8.03;;;17.70;99.90;;;;;;5071107;28;20195;-78
2021/07/25 02:50:01;;;;;;;20.97;9.03;;;17.70;99.90;;;;;;5070344;28;20279;-79
2021/07/25 02:52:28;;;;;;;21.77;8.80;;;17.70;99.90;;;;;;5070952;28;20278;-77
2021/07/25 02:54:55;;;;;;;20.13;9.07;;;17.80;99.90;;;;;;5071342;28;20242;-77
2021/07/25 02:57:22;;;;;;;13.80;8.37;;;17.70;99.90;;;;;;5072673;28;20282;-78
2021/07/25 02:59:50;;;;;;;15.60;8.90;;;17.70;99.90;;;;;;5072588;28;20282;-77
2021/07/25 03:02:18;;;;;;;15.63;8.37;;;17.60;99.90;;;;;;5071815;28;20195;-78
2021/07/25 03:04:47;;;;;;;16.53;8.80;;;17.50;99.90;;;;;;5070303;28;20295;-77
2021/07/25 03:07:14;;;;;;;19.07;9.13;;;17.50;99.90;;;;;;5072261;28;20199;-78
2021/07/25 03:09:41;;;;;;;18.07;9.37;;;17.40;99.90;;;;;;5072066;28;20306;-78
2021/07/25 03:12:08;;;;;;;22.77;9.83;;;17.40;99.90;;;;;;5072212;28;20282;-77
2021/07/25 03:14:36;;;;;;;24.80;9.60;;;17.30;99.90;;;;;;5072778;28;20306;-77
2021/07/25 03:17:03;;;;;;;18.17;9.27;;;17.20;99.90;;;;;;5071330;28;20203;-77
2021/07/25 03:19:29;;;;;;;17.07;9.03;;;17.20;99.90;;;;;;5072801;28;20195;-77
2021/07/25 03:21:58;;;;;;;13.97;9.30;;;17.20;99.90;;;;;;5072352;28;20200;-78
2021/07/25 03:24:25;;;;;;;17.43;9.60;;;17.10;99.90;;;;;;5070658;28;20227;-77
2021/07/25 03:26:52;;;;;;;19.87;9.80;;;17.10;99.90;;;;;;5071852;28;20202;-77
2021/07/25 03:29:18;;;;;;;20.10;9.57;;;16.90;99.90;;;;;;5071365;28;20188;-77
2021/07/25 03:31:45;;;;;;;32.50;10.57;;;16.90;99.90;;;;;;5071513;28;20621;-78
2021/07/25 03:34:12;;;;;;;22.70;11.20;;;17.00;99.90;;;;;;5071148;28;20550;-77
2021/07/25 03:36:39;;;;;;;21.10;10.20;;;17.00;99.90;;;;;;5068238;28;20194;-77
2021/07/25 03:39:13;;;;;;;25.60;12.00;;;16.90;99.90;;;;;;5071587;28;20200;-79
2021/07/25 03:41:40;;;;;;;26.37;11.30;;;16.80;99.90;;;;;;5072001;28;20187;-76
2021/07/25 03:44:07;;;;;;;21.43;10.83;;;16.80;99.90;;;;;;5072240;28;20203;-77
2021/07/25 03:46:34;;;;;;;26.27;10.80;;;16.80;99.90;;;;;;5072081;28;20315;-76
2021/07/25 03:49:01;;;;;;;19.13;9.60;;;16.70;99.90;;;;;;5072050;28;20226;-78
2021/07/25 03:51:29;;;;;;;25.80;10.40;;;16.70;99.90;;;;;;5072137;28;20689;-77
2021/07/25 03:53:56;;;;;;;21.57;10.73;;;16.70;99.90;;;;;;5070257;28;20238;-77
2021/07/25 03:56:24;;;;;;;19.17;9.83;;;16.70;99.90;;;;;;5071450;28;20249;-77
2021/07/25 03:58:51;;;;;;;22.53;10.63;;;16.60;99.90;;;;;;5068951;28;20335;-77
2021/07/25 04:01:18;;;;;;;19.60;9.50;;;16.60;99.90;;;;;;5070286;28;20203;-77
2021/07/25 04:03:46;;;;;;;24.50;9.87;;;16.50;99.90;;;;;;5069591;28;20276;-78
2021/07/25 04:06:13;;;;;;;18.27;9.47;;;16.50;99.90;;;;;;5071274;28;20199;-77
2021/07/25 04:08:40;;;;;;;25.00;9.73;;;16.50;99.90;;;;;;5070807;28;20227;-78
2021/07/25 04:11:07;;;;;;;19.10;9.37;;;16.60;99.90;;;;;;5072069;28;20196;-77
2021/07/25 04:13:35;;;;;;;18.10;9.67;;;16.60;99.90;;;;;;5071751;28;20295;-79
2021/07/25 04:16:02;;;;;;;14.20;8.90;;;16.60;99.90;;;;;;5071674;28;20223;-78
2021/07/25 04:18:29;;;;;;;14.10;8.80;;;16.60;99.90;;;;;;5070926;28;20195;-79
2021/07/25 04:20:56;;;;;;;17.57;8.67;;;16.60;99.90;;;;;;5071216;28;20227;-78
2021/07/25 04:23:22;;;;;;;14.03;9.03;;;16.70;99.90;;;;;;5071602;28;20202;-78
2021/07/25 04:25:50;;;;;;;22.57;9.53;;;16.70;99.90;;;;;;5070975;28;20235;-78
2021/07/25 04:28:17;;;;;;;24.83;9.07;;;16.80;99.90;;;;;;5071326;28;20283;-79
2021/07/25 04:30:46;;;;;;;18.20;8.93;;;16.90;99.90;;;;;;5075118;28;20657;-79
2021/07/25 04:33:15;;;;;;;20.30;9.80;;;16.90;99.90;;;;;;5073713;28;20226;-78
2021/07/25 04:35:43;;;;;;;15.50;8.80;;;17.00;99.90;;;;;;5073742;28;20227;-78
2021/07/25 04:38:10;;;;;;;22.60;8.80;;;16.90;99.90;;;;;;5075164;28;20653;-77
2021/07/25 04:40:39;;;;;;;15.43;8.47;;;16.90;99.90;;;;;;5074818;28;20290;-77
2021/07/25 04:43:11;;;;;;;16.70;8.80;;;16.90;99.90;;;;;;5074233;28;20621;-78
2021/07/25 04:45:47;;;;;;;18.57;8.77;;;17.10;99.90;;;;;;5074725;28;20192;-78
2021/07/25 04:48:25;;;;;;;24.27;9.37;;;17.20;99.90;;;;;;5072768;28;20593;-78
2021/07/25 04:51:01;;;;;;;15.80;9.00;;;17.40;99.90;;;;;;5071495;28;20739;-78
2021/07/25 04:53:28;;;;;;;22.40;9.13;;;17.70;99.90;;;;;;5072875;28;20199;-79
2021/07/25 04:55:59;;;;;;;17.00;8.53;;;17.90;99.90;;;;;;5073542;28;20267;-78
2021/07/25 04:58:33;;;;;;;18.93;8.17;;;18.10;99.90;;;;;;5074415;28;20218;-79
2021/07/25 05:01:03;;;;;;;17.27;8.33;;;18.40;99.90;;;;;;5070479;28;20590;-78
2021/07/25 05:03:34;;;;;;;17.43;8.60;;;18.40;99.90;;;;;;5070855;28;20282;-78
2021/07/25 05:06:01;;;;;;;15.23;7.27;;;18.50;99.90;;;;;;5073208;28;20527;-78
2021/07/25 05:08:29;;;;;;;13.60;8.27;;;18.50;99.90;;;;;;5071914;28;20271;-79
2021/07/25 05:11:02;;;;;;;13.67;6.90;;;18.40;99.90;;;;;;5071703;28;20249;-78
2021/07/25 05:13:35;;;;;;;14.17;8.03;;;18.50;99.90;;;;;;5073251;28;20286;-78
2021/07/25 05:16:05;;;;;;;16.57;7.67;;;18.40;99.90;;;;;;5070798;28;20246;-80
2021/07/25 05:18:38;;;;;;;18.83;7.13;;;18.30;99.90;;;;;;5070405;28;20593;-79
2021/07/25 05:21:16;;;;;;;14.57;7.20;;;18.50;99.90;;;;;;5070211;28;20286;-78
2021/07/25 05:23:45;;;;;;;14.13;7.50;;;19.10;99.90;;;;;;5071048;28;20230;-78
2021/07/25 05:26:14;;;;;;;13.97;6.50;;;20.10;99.90;;;;;;5070193;28;20645;-78
2021/07/25 05:28:43;;;;;;;12.43;7.03;;;20.80;99.90;;;;;;5070255;28;20713;-79
2021/07/25 05:31:11;;;;;;;14.00;5.80;;;21.30;99.90;;;;;;5070968;28;20633;-79
2021/07/25 05:33:39;;;;;;;10.35;5.60;;;22.50;99.90;;;;;;5069697;28;20220;-79
2021/07/25 05:36:06;;;;;;;7.28;5.30;;;23.40;99.90;;;;;;5069652;28;20691;-78
2021/07/25 05:38:33;;;;;;;9.07;5.18;;;24.80;99.90;;;;;;5068817;28;20637;-78
2021/07/25 05:41:00;;;;;;;11.02;4.60;;;26.10;99.90;;;;;;5068738;28;20203;-79
2021/07/25 05:43:27;;;;;;;9.48;5.13;;;27.50;99.90;;;;;;5068267;28;20544;-76
2021/07/25 05:45:54;;;;;;;8.73;4.20;;;28.10;99.90;;;;;;5070243;28;20634;-77
2021/07/25 05:48:21;;;;;;;8.98;4.75;;;29.10;99.90;;;;;;5070458;28;20298;-76
2021/07/25 05:50:50;;;;;;;7.00;4.18;;;30.20;99.90;;;;;;5069099;28;20199;-77
2021/07/25 05:53:17;;;;;;;6.40;4.20;;;31.10;99.90;;;;;;5070049;28;20231;-77
2021/07/25 05:55:44;;;;;;;8.95;4.25;;;32.20;99.90;;;;;;5071063;28;20210;-77
2021/07/25 05:58:10;;;;;;;9.73;4.80;;;33.20;99.90;;;;;;5067223;28;20222;-77
2021/07/25 06:00:37;;;;;;;6.60;4.38;;;34.20;99.90;;;;;;5068748;28;20286;-77
2021/07/25 06:03:05;;;;;;;10.25;4.00;;;35.00;99.90;;;;;;5070977;28;20649;-77
2021/07/25 06:05:34;;;;;;;8.40;3.90;;;35.70;99.90;;;;;;5072156;28;20306;-78
2021/07/25 06:08:04;;;;;;;7.25;3.70;;;36.20;99.90;;;;;;5069595;28;20645;-78
2021/07/25 06:10:32;;;;;;;9.10;3.83;;;36.60;99.90;;;;;;5067968;28;20207;-78
2021/07/25 06:13:01;;;;;;;7.10;3.47;;;36.40;99.90;;;;;;5068803;28;20204;-78
2021/07/25 06:15:29;;;;;;;6.13;3.72;;;36.80;99.90;;;;;;5068394;28;20199;-77
2021/07/25 06:18:00;;;;;;;7.15;3.60;;;37.40;99.90;;;;;;5067632;28;20848;-78
2021/07/25 06:20:28;;;;;;;5.47;3.45;;;37.90;99.90;;;;;;5067312;28;20278;-77
2021/07/25 06:22:55;;;;;;;7.32;3.78;;;38.40;99.90;;;;;;5066688;28;20550;-78
2021/07/25 06:25:26;;;;;;;6.93;3.33;;;38.30;99.90;;;;;;5066865;28;20207;-78
2021/07/25 06:27:54;;;;;;;6.68;3.55;;;37.80;99.90;;;;;;5063207;28;20210;-78
2021/07/25 06:30:23;;;;;;;4.70;3.63;;;37.50;99.90;;;;;;5068390;28;20218;-77
2021/07/25 06:32:58;;;;;;;5.10;3.33;;;38.00;99.90;;;;;;5068643;28;20208;-77
2021/07/25 06:35:27;;;;;;;6.00;3.67;;;38.90;99.90;;;;;;5068998;28;20285;-77
2021/07/25 06:37:54;;;;;;;3.75;3.22;;;40.00;99.90;;;;;;5068263;28;20195;-77
2021/07/25 06:40:21;;;;;;;9.40;3.53;;;40.70;99.90;;;;;;5071524;28;20223;-77
2021/07/25 06:42:50;;;;;;;5.97;3.45;;;41.40;99.90;;;;;;5069785;28;20212;-75
2021/07/25 06:45:17;;;;;;;5.43;3.33;;;40.60;99.30;;;;;;5067907;28;20302;-78
2021/07/25 06:47:47;;;;;;;6.35;3.58;;;40.20;99.90;;;;;;5069944;28;20270;-77
2021/07/25 06:50:16;;;;;;;5.28;3.40;;;39.20;99.00;;;;;;5066438;28;20219;-77
2021/07/25 06:52:43;;;;;;;6.47;3.45;;;37.90;99.90;;;;;;5069761;28;20219;-78
2021/07/25 06:55:11;;;;;;;5.35;3.45;;;36.90;99.90;;;;;;5070099;28;20278;-78
2021/07/25 06:57:38;;;;;;;7.22;3.60;;;36.60;99.90;;;;;;5069940;28;20556;-77
2021/07/25 07:00:08;;;;;;;7.05;3.45;;;36.80;99.90;;;;;;5071212;28;20670;-78
2021/07/25 07:02:49;;;;;;;8.43;3.28;;;36.90;99.90;;;;;;5070208;28;20669;-77
2021/07/25 07:05:17;;;;;;;7.43;3.50;;;36.80;99.90;;;;;;5069496;28;20672;-77
2021/07/25 07:07:45;;;;;;;5.05;3.53;;;37.10;99.90;;;;;;5069459;28;20314;-77
2021/07/25 07:10:12;;;;;;;5.65;3.30;;;38.10;99.90;;;;;;5069092;28;20283;-77
2021/07/25 07:12:39;;;;;;;3.72;3.22;;;39.60;99.90;;;;;;5067976;28;20279;-77
2021/07/25 07:15:09;;;;;;;7.35;3.17;;;40.70;99.90;;;;;;5065879;28;20275;-78
2021/07/25 07:17:37;;;;;;;7.75;3.60;;;40.60;99.90;;;;;;5065516;28;20198;-77
2021/07/25 07:20:06;;;;;;;5.95;3.72;;;39.40;99.90;;;;;;5069120;28;20196;-77
2021/07/25 07:22:34;;;;;;;6.28;3.30;;;37.70;99.90;;;;;;5067337;28;20278;-77
2021/07/25 07:25:01;;;;;;;9.85;3.67;;;36.20;99.90;;;;;;5064232;28;20199;-77
2021/07/25 07:27:28;;;;;;;6.88;3.80;;;35.10;99.90;;;;;;5065069;28;20211;-77
2021/07/25 07:29:56;;;;;;;8.85;3.58;;;34.20;99.90;;;;;;5066395;28;20239;-77
2021/07/25 07:32:24;;;;;;;7.70;4.00;;;33.60;99.90;;;;;;5067359;28;20198;-78
2021/07/25 07:34:51;;;;;;;8.10;3.60;;;34.50;99.90;;;;;;5062417;28;20222;-77
2021/07/25 07:37:18;;;;;;;5.47;3.55;;;36.00;99.90;;;;;;5069373;28;20198;-78
2021/07/25 07:39:46;;;;;;;5.65;3.58;;;36.90;99.90;;;;;;5067436;28;20283;-76
2021/07/25 07:42:14;;;;;;;6.80;3.72;;;37.70;99.90;;;;;;5064706;28;20208;-77
2021/07/25 07:44:42;;;;;;;3.90;3.50;;;37.10;99.90;;;;;;5065542;28;20705;-77
2021/07/25 07:47:09;;;;;;;4.32;3.42;;;36.90;99.90;;;;;;5069458;28;20318;-76
2021/07/25 07:49:37;;;;;;;6.55;3.75;;;37.20;99.90;;;;;;5066984;28;20602;-77
2021/07/25 07:52:05;;;;;;;6.57;3.85;;;36.30;99.90;;;;;;5067476;28;20192;-77
2021/07/25 07:54:33;;;;;;;6.43;3.63;;;36.20;99.90;;;;;;5067532;28;20291;-76
2021/07/25 07:57:00;;;;;;;8.10;3.72;;;37.30;99.90;;;;;;5067141;28;20195;-77
2021/07/25 07:59:27;;;;;;;4.15;3.60;;;38.50;99.90;;;;;;5067789;28;20245;-78
2021/07/25 08:01:54;;;;;;;6.60;3.13;;;39.00;98.20;;;;;;5068158;28;20226;-77
2021/07/25 08:04:21;;;;;;;7.35;3.22;;;39.60;99.90;;;;;;5070270;28;20709;-77
2021/07/25 08:06:49;;;;;;;5.03;2.70;;;40.00;99.20;;;;;;5071983;28;20272;-78
2021/07/25 08:09:16;;;;;;;5.55;3.42;;;40.50;99.50;;;;;;5070849;28;20278;-77
2021/07/25 08:11:45;;;;;;;5.03;3.00;;;41.10;99.30;;;;;;5069528;28;20286;-78
2021/07/25 08:14:13;;;;;;;3.35;2.72;;;40.20;96.80;;;;;;5071202;28;20191;-78
2021/07/25 08:16:40;;;;;;;5.90;2.72;;;38.40;98.50;;;;;;5072476;28;20227;-78
2021/07/25 08:19:07;;;;;;;5.57;3.05;;;36.50;97.90;;;;;;5069644;28;20331;-77
2021/07/25 08:21:34;;;;;;;4.82;2.90;;;35.40;99.90;;;;;;5072560;28;20222;-78
2021/07/25 08:24:03;;;;;;;9.45;3.15;;;34.30;99.90;;;;;;5072395;28;20192;-78
2021/07/25 08:26:30;;;;;;;4.30;2.65;;;33.60;99.90;;;;;;5074435;28;20298;-77
2021/07/25 08:28:57;;;;;;;5.85;3.08;;;33.30;99.90;;;;;;5074659;28;20298;-76
2021/07/25 08:31:23;;;;;;;3.22;2.85;;;33.00;99.90;;;;;;5066268;28;20246;-77
2021/07/25 08:33:50;;;;;;;6.80;3.20;;;33.10;99.90;;;;;;5072504;28;20199;-80
2021/07/25 08:36:17;;;;;;;6.82;3.00;;;32.70;99.90;;;;;;5063475;28;20612;-77
2021/07/25 08:38:45;;;;;;;4.90;2.78;;;32.50;99.90;;;;;;5064490;28;20288;-78
2021/07/25 08:41:14;;;;;;;3.42;2.40;;;32.70;99.90;;;;;;5071715;28;20199;-80
2021/07/25 08:43:44;;;;;;;3.97;2.40;;;33.10;99.90;;;;;;5074153;28;20645;-77
2021/07/25 08:46:17;;;;;;;2.50;2.28;;;33.30;99.90;;;;;;5073766;28;20303;-77
2021/07/25 08:48:48;;;;;;;12.32;3.15;;;32.80;99.90;;;;;;5088839;28;20231;-77
2021/07/25 08:51:18;;;;;;;3.13;2.38;;;32.20;99.90;;;;;;5090929;28;20192;-77
2021/07/25 08:53:59;;;;;;;9.00;2.70;;;31.60;99.90;;;;;;5093363;28;20192;-77
2021/07/25 08:56:29;;;;;;;5.50;2.63;;;31.20;99.90;;;;;;5092073;28;20213;-79
2021/07/25 08:59:00;;;;;;;3.63;2.22;;;30.80;99.90;;;;;;5092698;28;20226;-79
2021/07/25 09:01:35;;;;;;;4.05;2.00;;;30.70;99.90;;;;;;5090391;28;20195;-79
2021/07/25 09:04:03;;;;;;;7.13;2.47;;;30.70;99.90;;;;;;5093022;28;20206;-79
2021/07/25 09:06:41;;;;;;;6.05;2.40;;;31.00;99.90;;;;;;5085434;28;20212;-77
2021/07/25 09:09:08;;;;;;;5.40;2.45;;;31.00;99.90;;;;;;5084831;28;20206;-77
2021/07/25 09:11:37;;;;;;;4.65;2.20;;;30.90;99.90;;;;;;5080143;28;20374;-77
2021/07/25 09:14:04;;;;;;;4.18;2.17;;;31.20;99.90;;;;;;5055359;28;20200;-76
2021/07/25 09:16:33;;;;;;;6.28;2.47;;;32.10;99.90;;;;;;5072821;28;20772;-78
2021/07/25 09:19:01;;;;;;;5.78;2.50;;;31.70;99.90;;;;;;5074174;28;20278;-77
2021/07/25 09:21:39;;;;;;;4.32;2.70;;;31.40;99.90;;;;;;5073635;28;20187;-77
2021/07/25 09:24:30;;;;;;;5.70;2.70;;;30.60;99.90;;;;;;5074151;28;20229;-77
2021/07/25 09:27:01;;;;;;;5.30;2.72;;;30.30;99.90;;;;;;5061674;28;20398;-76
2021/07/25 09:29:30;;;;;;;4.45;2.53;;;30.60;99.90;;;;;;5074381;28;20231;-77
2021/07/25 09:32:13;;;;;;;4.88;2.40;;;31.90;99.90;;;;;;5070732;28;20629;-77
2021/07/25 09:34:41;;;;;;;3.38;2.28;;;32.70;99.90;;;;;;5074082;28;20286;-77
2021/07/25 09:37:12;;;;;;;6.15;2.50;;;33.00;99.90;;;;;;5072940;28;20202;-77
2021/07/25 09:39:41;;;;;;;5.28;2.50;;;33.40;99.90;;;;;;5073935;28;20284;-77
2021/07/25 09:42:10;;;;;;;3.88;2.30;;;33.70;99.90;;;;;;5074121;28;20282;-77
2021/07/25 09:44:49;;;;;;;5.40;2.55;;;34.30;99.90;;;;;;5072674;28;20192;-78
2021/07/25 09:47:26;;;;;;;3.63;2.22;;;35.50;99.90;;;;;;5073780;28;20302;-79
2021/07/25 09:49:54;;;;;;;3.28;2.10;;;37.00;99.90;;;;;;5073102;28;20207;-76
2021/07/25 09:52:27;;;;;;;5.63;2.50;;;37.90;99.90;;;;;;5073304;28;20278;-77
2021/07/25 09:54:56;;;;;;;5.03;2.15;;;38.50;99.90;;;;;;5073943;28;20525;-77
2021/07/25 09:57:26;;;;;;;4.38;2.05;;;37.90;99.90;;;;;;5072008;28;20203;-76
2021/07/25 09:59:53;;;;;;;6.18;2.30;;;37.00;99.90;;;;;;5069420;28;20245;-77
2021/07/25 10:02:35;;;;;;;3.03;1.98;;;35.50;99.90;;;;;;5086548;28;20198;-77
2021/07/25 10:05:07;;;;;;;6.60;2.50;;;34.60;99.90;;;;;;5061673;28;20294;-77
2021/07/25 10:07:34;;;;;;;5.32;2.00;;;34.20;99.90;;;;;;5060393;28;20216;-77
2021/07/25 10:10:02;;;;;;;3.17;2.30;;;34.90;99.90;;;;;;5058579;28;20207;-78
2021/07/25 10:12:32;;;;;;;2.78;2.00;;;35.30;99.90;;;;;;5057926;28;20246;-77
2021/07/25 10:15:01;;;;;;;3.10;1.90;;;35.30;99.90;;;;;;5061287;28;20271;-76
2021/07/25 10:17:32;;;;;;;3.47;2.08;;;35.10;99.90;;;;;;5057901;28;20242;-78
2021/07/25 10:20:00;;;;;;;3.28;2.03;;;35.90;99.90;;;;;;5061184;28;20376;-77
2021/07/25 10:22:30;;;;;;;3.17;2.17;;;34.90;99.90;;;;;;5059660;28;20223;-77
2021/07/25 10:24:59;;;;;;;4.78;1.90;;;34.40;99.90;;;;;;5057923;28;20224;-79
2021/07/25 10:27:26;;;;;;;4.03;2.00;;;33.40;99.90;;;;;;5058276;28;20228;-78
2021/07/25 10:29:55;;;;;;;4.80;2.20;;;33.30;99.90;;;;;;5059378;28;20290;-77
2021/07/25 10:32:23;;;;;;;4.00;2.35;;;33.20;99.90;;;;;;5061838;28;20212;-76
2021/07/25 10:34:51;;;;;;;2.38;1.65;;;33.60;99.90;;;;;;5064052;28;20203;-77
2021/07/25 10:37:18;;;;;;;3.72;2.08;;;34.70;99.90;;;;;;5057893;28;20195;-77
2021/07/25 10:39:48;;;;;;;3.97;1.80;;;35.80;99.90;;;;;;5056114;28;20214;-77
2021/07/25 10:42:22;;;;;;;1.95;1.70;;;37.60;99.90;;;;;;5059985;28;20709;-76
2021/07/25 10:44:49;;;;;;;2.50;2.00;;;39.40;99.90;;;;;;5059185;28;20705;-77
2021/07/25 10:47:28;;;;;;;4.03;2.10;;;40.10;97.20;;;;;;5062126;28;20302;-77
2021/07/25 10:50:01;;;;;;;2.55;2.10;;;38.90;98.20;;;;;;5056076;28;20211;-76
2021/07/25 10:52:49;;;;;;;2.08;1.77;;;37.00;98.30;;;;;;5058962;28;20202;-79
2021/07/25 10:55:52;;;;;;;3.53;2.05;;;35.40;99.90;;;;;;5060450;28;20199;-79
2021/07/25 10:58:22;;;;;;;3.67;2.42;;;33.80;99.90;;;;;;5060592;28;20292;-77
2021/07/25 11:00:51;;;;;;;4.15;2.17;;;32.20;99.90;;;;;;5070051;28;20206;-76
2021/07/25 11:03:44;;;;;;;4.50;2.35;;;31.30;99.90;;;;;;5068619;28;20191;-78
2021/07/25 11:06:17;;;;;;;15.55;4.00;;;29.70;99.90;;;;;;5058219;28;20253;-80
2021/07/25 11:08:46;;;;;;;6.35;3.08;;;28.00;99.90;;;;;;5065864;28;20608;-78
2021/07/25 11:11:53;;;;;;;6.47;2.80;;;26.70;99.90;;;;;;5067859;28;20208;-78
2021/07/25 11:15:06;;;;;;;5.10;3.40;;;26.30;99.90;;;;;;5058080;28;20215;-76
2021/07/25 11:17:54;;;;;;;4.80;2.75;;;27.90;99.90;;;;;;5063155;28;20196;-77
2021/07/25 11:20:50;;;;;;;2.58;2.25;;;31.00;99.90;;;;;;5057642;28;20196;-79
2021/07/25 11:23:36;;;;;;;3.28;2.38;;;31.90;99.90;;;;;;5060035;28;20634;-79
2021/07/25 11:26:33;;;;;;;4.25;2.40;;;32.20;99.90;;;;;;5064942;28;20189;-79
2021/07/25 11:29:02;;;;;;;8.63;2.50;;;32.40;99.90;;;;;;5066610;28;20586;-78
2021/07/25 11:31:41;;;;;;;4.68;2.58;;;31.50;99.90;;;;;;5066894;28;20204;-79
2021/07/25 11:34:09;;;;;;;3.88;2.63;;;30.40;99.90;;;;;;5066302;28;20191;-79
2021/07/25 11:36:38;;;;;;;5.15;2.63;;;29.70;99.90;;;;;;5061397;28;20638;-78
2021/07/25 11:39:07;;;;;;;3.05;2.55;;;29.40;99.90;;;;;;5067463;28;20554;-78
2021/07/25 11:41:36;;;;;;;4.68;3.03;;;28.90;99.90;;;;;;5073057;28;20203;-78
2021/07/25 11:44:05;;;;;;;6.18;2.80;;;28.00;99.90;;;;;;5070408;28;20651;-78
2021/07/25 11:46:50;;;;;;;8.63;3.08;;;26.90;99.90;;;;;;5072067;28;20680;-78
2021/07/25 11:49:20;;;;;;;6.07;3.30;;;26.60;99.90;;;;;;5071884;28;20207;-75
2021/07/25 11:51:56;;;;;;;5.50;2.80;;;27.60;99.90;;;;;;5070042;28;20195;-79
2021/07/25 11:54:25;;;;;;;4.13;2.40;;;29.70;99.90;;;;;;5074160;28;20223;-77
2021/07/25 11:57:00;;;;;;;3.15;1.80;;;31.00;99.90;;;;;;5094668;28;20335;-76
2021/07/25 11:59:29;;;;;;;1.52;1.30;;;31.70;99.90;;;;;;5095029;28;20194;-77
2021/07/25 12:01:59;;;;;;;2.45;1.58;;;30.80;99.90;;;;;;5096556;28;20187;-75
2021/07/25 12:04:31;;;;;;;1.75;1.50;;;31.10;99.90;;;;;;5065126;28;20273;-79
2021/07/25 12:07:05;;;;;;;3.20;1.90;;;30.80;99.90;;;;;;5072882;28;20219;-78
2021/07/25 12:09:34;;;;;;;3.03;1.70;;;30.70;99.90;;;;;;5075777;28;20632;-77
2021/07/25 12:12:11;;;;;;;2.90;1.73;;;30.30;99.90;;;;;;5075818;28;20234;-78
2021/07/25 12:14:41;;;;;;;4.45;2.10;;;30.00;99.90;;;;;;5055062;28;20626;-77
2021/07/25 12:17:12;;;;;;;3.47;1.70;;;29.60;99.90;;;;;;5055518;28;20618;-77
2021/07/25 12:19:44;;;;;;;3.40;2.60;;;29.70;99.90;;;;;;5055128;28;20254;-79
2021/07/25 12:22:19;;;;;;;5.03;2.03;;;29.90;99.90;;;;;;5066618;28;20194;-75
2021/07/25 12:24:51;;;;;;;4.05;2.10;;;30.30;99.90;;;;;;5093896;28;20199;-81
2021/07/25 12:27:28;;;;;;;3.95;2.28;;;30.50;99.90;;;;;;5093523;28;20210;-77
2021/07/25 12:30:08;;;;;;;3.28;1.85;;;31.10;99.90;;;;;;5093796;28;20194;-78
2021/07/25 12:32:36;;;;;;;3.17;2.05;;;32.10;99.90;;;;;;5093746;28;20594;-78
2021/07/25 12:35:24;;;;;;;3.08;2.03;;;31.50;99.90;;;;;;5067170;28;20199;-77
2021/07/25 12:37:55;;;;;;;2.30;1.88;;;31.20;99.90;;;;;;5073726;28;20196;-77
2021/07/25 12:40:25;;;;;;;2.60;2.05;;;31.30;99.90;;;;;;5066941;28;20282;-78
2021/07/25 12:43:07;;;;;;;3.17;1.92;;;31.40;99.90;;;;;;5054963;28;20196;-79
2021/07/25 12:45:42;;;;;;;2.00;1.80;;;31.10;99.90;;;;;;5055246;28;20214;-76
2021/07/25 12:48:11;;;;;;;2.50;1.77;;;30.30;99.90;;;;;;5054997;28;20294;-79
2021/07/25 12:50:52;;;;;;;3.67;1.98;;;30.50;99.90;;;;;;5075477;28;20202;-77
2021/07/25 12:53:30;;;;;;;2.20;1.83;;;31.00;99.90;;;;;;5095179;28;20270;-78
2021/07/25 12:55:58;;;;;;;3.15;1.70;;;31.10;99.90;;;;;;5095082;28;20249;-80